Time;durP1;ratioP1;P1;durP2;ratioP2;P2;SDS_P1;SDS_P2;PMS_P1;PMS_P2;Temp;Humidity;BMP_temperature;BMP_pressure;BME280_temperature;BME280_humidity;BME280_pressure;Samples;Min_cycle;Max_cycle;Signal;HPM_P1;HPM_P2
2021/04/16 00:00:18;;;;;;;10.70;7.63;;;;;;;;;;6079609;29;20056;-71
2021/04/16 00:03:20;;;;;;;15.50;8.40;;;;;;;;;;6077586;29;20063;-70
2021/04/16 00:06:22;;;;;;;10.93;8.18;;;;;;;;;;6076627;29;20092;-72
2021/04/16 00:09:24;;;;;;;14.02;8.43;;;;;;;;;;6077090;29;20049;-71
2021/04/16 00:12:25;;;;;;;10.25;7.57;;;;;;;;;;6079573;29;20049;-72
2021/04/16 00:15:28;;;;;;;12.10;7.72;;;;;;;;;;6074690;29;20045;-72
2021/04/16 00:18:31;;;;;;;10.57;8.10;;;;;;;;;;6079707;29;20072;-71
2021/04/16 00:21:32;;;;;;;10.70;7.55;;;;;;;;;;6072759;29;20091;-71
2021/04/16 00:24:34;;;;;;;9.57;7.63;;;;;;;;;;6085286;29;20064;-71
2021/04/16 00:27:35;;;;;;;12.50;8.02;;;;;;;;;;6080289;29;20063;-71
2021/04/16 00:30:39;;;;;;;12.25;8.25;;;;;;;;;;6080815;29;20072;-72
2021/04/16 00:33:42;;;;;;;10.45;8.10;;;;;;;;;;6082335;29;20055;-72
2021/04/16 00:36:43;;;;;;;9.10;6.88;;;;;;;;;;6084548;29;20063;-71
2021/04/16 00:39:44;;;;;;;10.73;7.78;;;;;;;;;;6081348;29;20049;-72
2021/04/16 00:42:51;;;;;;;13.23;8.23;;;;;;;;;;6080673;29;20051;-70
2021/04/16 00:45:56;;;;;;;11.07;7.47;;;;;;;;;;6084282;29;20079;-70
2021/04/16 00:49:00;;;;;;;9.80;7.22;;;;;;;;;;6083610;29;20072;-71
2021/04/16 00:52:03;;;;;;;8.85;7.03;;;;;;;;;;6080811;29;20075;-72
2021/04/16 00:55:06;;;;;;;11.43;8.07;;;;;;;;;;6077716;29;20059;-70
2021/04/16 00:58:07;;;;;;;9.68;7.32;;;;;;;;;;6074392;29;20515;-71
2021/04/16 01:01:08;;;;;;;9.50;7.30;;;;;;;;;;6076497;29;20064;-71
2021/04/16 01:04:12;;;;;;;11.43;7.97;;;;;;;;;;6344340;23;20160;-71
2021/04/16 01:07:14;;;;;;;9.83;7.77;;;;;;;;;;6055098;29;20063;-70
2021/04/16 01:10:16;;;;;;;12.57;8.23;;;;;;;;;;6048056;29;20046;-71
2021/04/16 01:13:17;;;;;;;10.68;8.13;;;;;;;;;;6059859;29;20049;-72
2021/04/16 01:16:22;;;;;;;9.65;7.47;;;;;;;;;;6056518;29;20061;-70
2021/04/16 01:19:31;;;;;;;12.40;8.18;;;;;;;;;;6060493;29;20053;-70
2021/04/16 01:22:36;;;;;;;9.82;7.95;;;;;;;;;;6049869;29;20155;-72
2021/04/16 01:25:38;;;;;;;9.98;7.30;;;;;;;;;;6049219;29;20541;-71
2021/04/16 01:28:39;;;;;;;13.52;8.60;;;;;;;;;;6051109;29;20053;-70
2021/04/16 01:31:47;;;;;;;12.60;8.75;;;;;;;;;;6059118;29;20053;-71
2021/04/16 01:34:48;;;;;;;10.50;8.00;;;;;;;;;;6055056;29;20046;-70
2021/04/16 01:37:50;;;;;;;11.13;8.05;;;;;;;;;;6051331;29;20100;-70
2021/04/16 01:40:52;;;;;;;10.77;7.70;;;;;;;;;;6053183;29;20053;-72
2021/04/16 01:43:55;;;;;;;11.82;8.27;;;;;;;;;;6048532;29;20499;-71
2021/04/16 01:47:00;;;;;;;10.82;8.20;;;;;;;;;;6050946;29;20085;-70
2021/04/16 01:50:02;;;;;;;11.98;8.55;;;;;;;;;;6053523;29;20057;-71
2021/04/16 01:53:04;;;;;;;13.13;8.43;;;;;;;;;;6052378;29;20157;-70
2021/04/16 01:56:06;;;;;;;10.38;8.48;;;;;;;;;;6054485;29;20048;-72
2021/04/16 01:59:08;;;;;;;10.55;8.45;;;;;;;;;;6057193;29;20101;-70
2021/04/16 02:02:12;;;;;;;13.70;9.23;;;;;;;;;;6067963;29;20057;-71
2021/04/16 02:05:14;;;;;;;14.18;9.13;;;;;;;;;;6057212;29;20049;-70
2021/04/16 02:08:15;;;;;;;14.70;9.35;;;;;;;;;;6052863;29;20409;-72
2021/04/16 02:11:17;;;;;;;11.20;9.10;;;;;;;;;;6060129;29;20056;-71
2021/04/16 02:14:21;;;;;;;13.20;9.32;;;;;;;;;;6062663;29;20078;-70
2021/04/16 02:17:25;;;;;;;12.85;9.00;;;;;;;;;;6074100;29;20049;-70
2021/04/16 02:20:27;;;;;;;;;;;;;;;;;;6067816;29;20412;-71
2021/04/16 02:23:28;;;;;;;11.25;8.30;;;;;;;;;;6063421;29;19927;-71
2021/04/16 02:26:30;;;;;;;13.77;9.73;;;;;;;;;;6051614;29;20065;-71
2021/04/16 02:29:31;;;;;;;15.23;9.27;;;;;;;;;;6055980;29;20064;-70
2021/04/16 02:32:33;;;;;;;11.68;8.85;;;;;;;;;;6057006;29;20053;-72
2021/04/16 02:35:34;;;;;;;12.85;9.93;;;;;;;;;;6062717;29;20069;-70
2021/04/16 02:38:35;;;;;;;13.98;9.23;;;;;;;;;;6062535;29;20055;-70
2021/04/16 02:41:37;;;;;;;10.43;8.60;;;;;;;;;;6066916;29;20503;-70
2021/04/16 02:44:39;;;;;;;10.88;8.73;;;;;;;;;;6063911;29;20059;-70
2021/04/16 02:47:41;;;;;;;13.60;9.05;;;;;;;;;;6066487;29;20125;-70
2021/04/16 02:50:42;;;;;;;13.77;9.05;;;;;;;;;;6062668;29;20045;-72
2021/04/16 02:53:44;;;;;;;13.30;8.50;;;;;;;;;;6067698;29;20056;-71
2021/04/16 02:56:46;;;;;;;12.45;8.77;;;;;;;;;;6065818;29;20053;-70
2021/04/16 02:59:47;;;;;;;13.57;9.05;;;;;;;;;;6059381;29;20057;-70
2021/04/16 03:02:49;;;;;;;10.98;8.20;;;;;;;;;;6069775;29;20053;-70
2021/04/16 03:05:51;;;;;;;12.30;8.57;;;;;;;;;;6065675;29;20053;-70
2021/04/16 03:08:53;;;;;;;11.93;8.57;;;;;;;;;;6062300;29;20053;-70
2021/04/16 03:11:55;;;;;;;13.13;8.90;;;;;;;;;;6064257;29;20061;-71
2021/04/16 03:14:57;;;;;;;11.32;8.73;;;;;;;;;;6061485;29;20064;-72
2021/04/16 03:17:58;;;;;;;13.13;9.00;;;;;;;;;;6055158;29;20057;-71
2021/04/16 03:20:59;;;;;;;12.07;8.57;;;;;;;;;;6063753;29;20045;-70
2021/04/16 03:24:01;;;;;;;12.43;8.98;;;;;;;;;;6066115;29;20060;-70
2021/04/16 03:27:04;;;;;;;13.70;8.77;;;;;;;;;;6066754;29;20051;-71
2021/04/16 03:30:09;;;;;;;13.93;9.10;;;;;;;;;;6045022;29;20068;-70
2021/04/16 03:33:10;;;;;;;11.73;8.75;;;;;;;;;;6052954;29;20049;-72
2021/04/16 03:36:11;;;;;;;13.48;9.23;;;;;;;;;;6052012;29;20049;-70
2021/04/16 03:39:13;;;;;;;13.50;9.00;;;;;;;;;;6052964;29;20045;-70
2021/04/16 03:42:15;;;;;;;13.40;9.05;;;;;;;;;;6061362;29;20105;-70
2021/04/16 03:45:17;;;;;;;12.40;8.57;;;;;;;;;;6057109;29;20042;-71
2021/04/16 03:48:19;;;;;;;13.00;8.98;;;;;;;;;;6053705;29;20098;-70
2021/04/16 03:51:20;;;;;;;14.57;8.90;;;;;;;;;;6058898;29;20048;-70
2021/04/16 03:54:22;;;;;;;13.05;8.40;;;;;;;;;;6057208;29;20049;-71
2021/04/16 03:57:25;;;;;;;12.70;8.70;;;;;;;;;;6059641;29;20044;-71
2021/04/16 04:00:30;;;;;;;12.30;8.52;;;;;;;;;;6059563;29;20057;-71
2021/04/16 04:03:32;;;;;;;15.63;8.65;;;;;;;;;;6051407;29;20092;-70
2021/04/16 04:06:33;;;;;;;11.98;8.00;;;;;;;;;;6054338;29;20068;-70
2021/04/16 04:09:36;;;;;;;12.00;8.88;;;;;;;;;;6051944;29;20064;-70
2021/04/16 04:12:38;;;;;;;11.95;8.63;;;;;;;;;;6051688;29;20141;-71
2021/04/16 04:15:40;;;;;;;11.10;8.07;;;;;;;;;;6053186;29;20100;-70
2021/04/16 04:18:41;;;;;;;13.55;8.02;;;;;;;;;;6059377;29;20057;-70
2021/04/16 04:21:42;;;;;;;11.82;8.88;;;;;;;;;;6056631;29;20049;-71
2021/04/16 04:24:43;;;;;;;9.73;8.13;;;;;;;;;;6052616;29;20061;-70
2021/04/16 04:27:47;;;;;;;11.82;8.15;;;;;;;;;;6047226;29;20050;-70
2021/04/16 04:30:48;;;;;;;10.18;8.52;;;;;;;;;;6055370;29;20053;-70
2021/04/16 04:33:49;;;;;;;10.50;7.88;;;;;;;;;;6054705;29;20050;-71
2021/04/16 04:36:51;;;;;;;12.27;8.75;;;;;;;;;;6060622;29;20049;-70
2021/04/16 04:39:53;;;;;;;11.95;8.50;;;;;;;;;;6046478;29;20061;-70
2021/04/16 04:42:55;;;;;;;14.20;8.43;;;;;;;;;;6053121;29;20067;-70
2021/04/16 04:45:56;;;;;;;12.82;8.30;;;;;;;;;;6051164;29;20065;-71
2021/04/16 04:48:58;;;;;;;15.07;8.65;;;;;;;;;;6063934;29;20048;-70
2021/04/16 04:52:11;;;;;;;11.85;7.70;;;;;;;;;;6050262;29;20106;-71
2021/04/16 04:55:15;;;;;;;11.03;8.57;;;;;;;;;;6051730;29;20069;-71
2021/04/16 04:58:17;;;;;;;11.20;7.67;;;;;;;;;;6050940;29;20053;-71
2021/04/16 05:01:18;;;;;;;11.63;8.10;;;;;;;;;;6052290;29;20469;-71
2021/04/16 05:04:19;;;;;;;11.18;8.00;;;;;;;;;;6053484;29;20072;-71
2021/04/16 05:07:21;;;;;;;10.02;7.50;;;;;;;;;;6056746;29;20128;-71
2021/04/16 05:10:22;;;;;;;11.20;7.80;;;;;;;;;;6054164;29;20048;-71
2021/04/16 05:13:24;;;;;;;14.80;7.40;;;;;;;;;;6055736;29;20097;-72
2021/04/16 05:16:26;;;;;;;13.43;7.53;;;;;;;;;;6051886;29;20093;-72
2021/04/16 05:19:27;;;;;;;9.77;7.13;;;;;;;;;;6057738;29;20049;-70
2021/04/16 05:22:28;;;;;;;11.20;7.45;;;;;;;;;;6049135;29;20057;-70
2021/04/16 05:25:29;;;;;;;10.05;7.65;;;;;;;;;;6056561;29;20075;-70
2021/04/16 05:28:31;;;;;;;15.30;8.75;;;;;;;;;;6052080;29;20093;-70
2021/04/16 05:31:33;;;;;;;14.75;8.48;;;;;;;;;;6054304;29;20053;-70
2021/04/16 05:34:34;;;;;;;12.00;7.50;;;;;;;;;;6051065;29;20712;-71
2021/04/16 05:37:37;;;;;;;12.48;7.13;;;;;;;;;;6053253;29;20081;-71
2021/04/16 05:40:38;;;;;;;12.35;6.97;;;;;;;;;;6056135;29;20560;-72
2021/04/16 05:43:41;;;;;;;11.35;7.55;;;;;;;;;;6052107;29;20052;-72
2021/04/16 05:46:42;;;;;;;11.55;7.72;;;;;;;;;;6057326;29;20056;-70
2021/04/16 05:49:43;;;;;;;13.48;7.47;;;;;;;;;;6049086;29;20064;-71
2021/04/16 05:52:44;;;;;;;11.52;7.28;;;;;;;;;;6026956;29;20057;-71
2021/04/16 05:55:46;;;;;;;9.73;6.97;;;;;;;;;;6052160;29;20053;-71
2021/04/16 05:58:48;;;;;;;12.10;7.00;;;;;;;;;;6061143;29;20417;-71
2021/04/16 06:01:49;;;;;;;11.00;7.35;;;;;;;;;;6059606;29;20053;-70
2021/04/16 06:04:51;;;;;;;14.88;7.55;;;;;;;;;;6046751;29;26794;-71
2021/04/16 06:07:55;;;;;;;9.85;6.93;;;;;;;;;;6054499;29;20100;-72
2021/04/16 06:10:56;;;;;;;13.73;6.63;;;;;;;;;;6051341;29;20053;-73
2021/04/16 06:13:58;;;;;;;10.52;6.90;;;;;;;;;;6058291;29;20121;-72
2021/04/16 06:17:00;;;;;;;8.60;7.13;;;;;;;;;;6058674;29;20053;-71
2021/04/16 06:20:01;;;;;;;11.32;7.60;;;;;;;;;;6061446;29;20045;-71
2021/04/16 06:23:02;;;;;;;13.80;7.93;;;;;;;;;;6052993;29;20045;-72
2021/04/16 06:26:03;;;;;;;10.20;6.80;;;;;;;;;;6064048;29;20044;-71
2021/04/16 06:29:06;;;;;;;13.68;7.20;;;;;;;;;;6051705;29;20041;-71
2021/04/16 06:32:08;;;;;;;9.65;6.55;;;;;;;;;;6052595;29;20870;-71
2021/04/16 06:35:13;;;;;;;11.15;6.10;;;;;;;;;;6055105;29;20434;-71
2021/04/16 06:38:15;;;;;;;10.73;6.18;;;;;;;;;;6054992;29;20106;-70
2021/04/16 06:41:19;;;;;;;10.00;6.38;;;;;;;;;;6051362;29;20049;-70
2021/04/16 06:44:24;;;;;;;8.85;6.22;;;;;;;;;;6050227;29;20061;-71
2021/04/16 06:47:27;;;;;;;9.63;6.57;;;;;;;;;;6052333;29;20049;-71
2021/04/16 06:50:31;;;;;;;10.55;6.28;;;;;;;;;;6058297;29;20053;-71
2021/04/16 06:53:40;;;;;;;12.40;7.13;;;;;;;;;;6059979;29;20065;-70
2021/04/16 06:56:43;;;;;;;10.88;6.70;;;;;;;;;;6054850;29;20053;-71
2021/04/16 06:59:46;;;;;;;14.95;6.63;;;;;;;;;;6060048;29;20053;-73
2021/04/16 07:02:52;;;;;;;7.80;6.13;;;;;;;;;;6058840;29;20695;-73
2021/04/16 07:05:55;;;;;;;10.77;5.72;;;;;;;;;;6053279;29;20037;-71
2021/04/16 07:09:06;;;;;;;11.45;5.68;;;;;;;;;;6052773;29;20064;-71
2021/04/16 07:12:13;;;;;;;9.90;4.72;;;;;;;;;;6054034;29;20768;-71
2021/04/16 07:15:18;;;;;;;6.35;4.75;;;;;;;;;;6050139;29;20535;-71
2021/04/16 07:18:23;;;;;;;8.63;5.82;;;;;;;;;;6047766;29;20125;-71
2021/04/16 07:21:24;;;;;;;7.68;5.20;;;;;;;;;;6060066;29;20152;-72
2021/04/16 07:24:25;;;;;;;7.53;6.05;;;;;;;;;;6060064;29;20045;-71
2021/04/16 07:27:43;;;;;;;8.82;5.47;;;;;;;;;;6063199;29;20072;-72
2021/04/16 07:30:49;;;;;;;9.43;5.28;;;;;;;;;;6060462;29;20080;-73
2021/04/16 07:33:51;;;;;;;8.02;4.72;;;;;;;;;;6053343;29;20614;-71
2021/04/16 07:36:52;;;;;;;10.18;5.22;;;;;;;;;;6055176;29;20050;-71
2021/04/16 07:40:00;;;;;;;8.70;5.68;;;;;;;;;;6053940;29;20065;-70
2021/04/16 07:43:02;;;;;;;8.68;5.88;;;;;;;;;;6051993;29;20061;-70
2021/04/16 07:46:04;;;;;;;8.35;5.45;;;;;;;;;;6054003;29;20045;-70
2021/04/16 07:49:17;;;;;;;7.50;5.70;;;;;;;;;;6054825;29;20061;-71
2021/04/16 07:52:23;;;;;;;6.82;4.53;;;;;;;;;;6055696;29;20077;-71
2021/04/16 07:55:27;;;;;;;9.55;4.57;;;;;;;;;;6057361;29;20041;-71
2021/04/16 07:58:28;;;;;;;6.57;4.57;;;;;;;;;;6051700;29;20069;-72
2021/04/16 08:01:33;;;;;;;6.32;4.32;;;;;;;;;;6056378;29;20057;-71
2021/04/16 08:04:35;;;;;;;10.02;4.55;;;;;;;;;;6059653;29;20065;-71
2021/04/16 08:07:36;;;;;;;8.50;5.07;;;;;;;;;;6062052;29;20052;-72
2021/04/16 08:10:38;;;;;;;8.07;3.50;;;;;;;;;;6064463;29;20093;-71
2021/04/16 08:13:54;;;;;;;4.28;3.17;;;;;;;;;;6068134;29;20045;-71
2021/04/16 08:16:58;;;;;;;4.80;3.10;;;;;;;;;;6055134;29;20065;-73
2021/04/16 08:20:15;;;;;;;4.45;3.08;;;;;;;;;;6054838;29;20045;-71
2021/04/16 08:23:16;;;;;;;4.35;3.05;;;;;;;;;;6043478;29;20079;-71
2021/04/16 08:26:19;;;;;;;4.57;2.92;;;;;;;;;;6049707;29;20057;-71
2021/04/16 08:29:26;;;;;;;4.65;2.70;;;;;;;;;;6046626;29;20816;-73
2021/04/16 08:32:32;;;;;;;4.93;3.30;;;;;;;;;;6058443;29;20085;-71
2021/04/16 08:35:39;;;;;;;5.53;3.72;;;;;;;;;;6051779;29;20061;-71
2021/04/16 08:38:55;;;;;;;6.18;4.38;;;;;;;;;;6050938;29;20045;-73
2021/04/16 08:41:59;;;;;;;8.10;4.40;;;;;;;;;;6052577;29;20057;-72
2021/04/16 08:45:02;;;;;;;8.80;4.45;;;;;;;;;;6045677;29;20077;-72
2021/04/16 08:48:12;;;;;;;6.57;4.53;;;;;;;;;;6045515;29;20472;-73
2021/04/16 08:51:15;;;;;;;7.82;4.53;;;;;;;;;;6043499;29;20057;-71
2021/04/16 08:54:20;;;;;;;6.50;4.77;;;;;;;;;;6052990;29;20045;-71
2021/04/16 08:57:24;;;;;;;7.85;4.93;;;;;;;;;;6049653;29;20469;-71
2021/04/16 09:00:32;;;;;;;8.43;4.65;;;;;;;;;;6050592;29;20072;-71
2021/04/16 09:03:43;;;;;;;9.23;5.28;;;;;;;;;;6057304;29;20100;-72
2021/04/16 09:06:47;;;;;;;7.38;4.97;;;;;;;;;;6051721;29;20174;-72
2021/04/16 09:09:52;;;;;;;9.40;5.43;;;;;;;;;;6041067;29;20417;-72
2021/04/16 09:12:54;;;;;;;12.40;6.53;;;;;;;;;;6046977;29;20056;-72
2021/04/16 09:16:22;;;;;;;9.68;5.35;;;;;;;;;;6048330;29;20576;-72
2021/04/16 09:19:43;;;;;;;9.13;5.70;;;;;;;;;;6047140;29;20077;-71
2021/04/16 09:22:45;;;;;;;7.78;5.93;;;;;;;;;;6046933;29;20487;-71
2021/04/16 09:25:48;;;;;;;7.32;5.28;;;;;;;;;;6037222;29;20602;-72
2021/04/16 09:28:55;;;;;;;8.88;6.50;;;;;;;;;;6038734;29;20449;-71
2021/04/16 09:31:59;;;;;;;8.98;5.45;;;;;;;;;;6034915;29;20093;-73
2021/04/16 09:35:02;;;;;;;8.88;5.97;;;;;;;;;;6034978;29;20049;-71
2021/04/16 09:38:28;;;;;;;9.85;6.28;;;;;;;;;;6036132;29;20144;-71
2021/04/16 09:41:36;;;;;;;8.55;6.22;;;;;;;;;;6041235;29;20424;-72
2021/04/16 09:44:45;;;;;;;9.27;6.05;;;;;;;;;;6039663;29;20189;-72
2021/04/16 09:47:52;;;;;;;7.60;4.97;;;;;;;;;;6045376;29;20572;-72
2021/04/16 09:51:18;;;;;;;8.93;5.10;;;;;;;;;;6047627;29;20049;-71
2021/04/16 09:54:35;;;;;;;9.60;5.65;;;;;;;;;;6046982;29;20481;-71
2021/04/16 09:57:43;;;;;;;7.43;5.40;;;;;;;;;;6044343;29;20049;-71
2021/04/16 10:01:06;;;;;;;8.30;5.75;;;;;;;;;;6043134;29;20073;-73
2021/04/16 10:04:13;;;;;;;6.70;4.30;;;;;;;;;;6043654;29;20172;-72
2021/04/16 10:07:16;;;;;;;10.18;5.68;;;;;;;;;;6054005;29;20044;-72
2021/04/16 10:10:21;;;;;;;9.33;5.33;;;;;;;;;;6044989;29;20088;-71
2021/04/16 10:13:24;;;;;;;9.95;4.68;;;;;;;;;;6051296;29;20548;-72
2021/04/16 10:16:26;;;;;;;9.18;5.05;;;;;;;;;;6045149;29;20060;-72
2021/04/16 10:19:36;;;;;;;7.90;4.78;;;;;;;;;;6038036;29;20073;-73
2021/04/16 10:22:38;;;;;;;8.13;5.40;;;;;;;;;;6038782;29;20153;-71
2021/04/16 12:38:36;;;;;;;4.45;3.45;;;;;;;;;;6036395;29;20048;-74
2021/04/16 12:41:42;;;;;;;6.80;4.75;;;;;;;;;;6036029;29;20061;-73
2021/04/16 12:44:47;;;;;;;9.00;4.68;;;;;;;;;;6046561;29;20049;-74
2021/04/16 12:47:48;;;;;;;4.28;3.65;;;;;;;;;;6046470;29;20061;-74
2021/04/16 12:50:51;;;;;;;6.78;4.38;;;;;;;;;;6048624;29;20053;-73
2021/04/16 12:53:52;;;;;;;5.40;4.20;;;;;;;;;;6051930;29;20048;-74
2021/04/16 12:56:53;;;;;;;9.30;4.90;;;;;;;;;;6057458;29;20086;-73
2021/04/16 12:59:54;;;;;;;6.57;4.63;;;;;;;;;;6060682;29;20080;-74
2021/04/16 13:02:59;;;;;;;6.63;4.72;;;;;;;;;;6057094;29;20084;-77
2021/04/16 13:06:01;;;;;;;7.70;4.22;;;;;;;;;;6055982;29;20128;-74
2021/04/16 13:09:03;;;;;;;8.25;4.90;;;;;;;;;;6054612;29;20139;-73
2021/04/16 13:12:06;;;;;;;6.22;4.43;;;;;;;;;;6049901;29;20128;-76
2021/04/16 13:15:08;;;;;;;9.80;4.70;;;;;;;;;;6046085;29;20045;-78
2021/04/16 13:18:15;;;;;;;6.55;4.60;;;;;;;;;;6045853;29;20045;-74
2021/04/16 13:21:19;;;;;;;4.90;4.15;;;;;;;;;;6045726;29;20128;-75
2021/04/16 13:24:20;;;;;;;6.07;4.82;;;;;;;;;;6046774;29;20084;-74
2021/04/16 13:27:24;;;;;;;5.90;4.47;;;;;;;;;;6047985;29;20087;-75
2021/04/16 13:30:27;;;;;;;6.40;4.75;;;;;;;;;;6049783;29;20109;-76
2021/04/16 13:33:28;;;;;;;;;;;;;;;;;;6039053;29;20143;-70
2021/04/16 13:36:31;;;;;;;6.68;4.65;;;;;;;;;;6043717;29;19932;-74
2021/04/16 13:39:32;;;;;;;6.72;4.70;;;;;;;;;;6041597;29;20153;-73
2021/04/16 13:42:33;;;;;;;6.00;3.92;;;;;;;;;;6042606;29;20150;-74
2021/04/16 13:45:35;;;;;;;4.55;3.22;;;;;;;;;;6050228;29;20537;-75
2021/04/16 13:48:36;;;;;;;5.97;4.22;;;;;;;;;;6039765;29;20145;-73
2021/04/16 13:51:38;;;;;;;5.88;4.88;;;;;;;;;;6052942;29;20131;-74
2021/04/16 13:54:39;;;;;;;9.93;5.93;;;;;;;;;;6049381;29;20121;-74
2021/04/16 13:57:40;;;;;;;9.63;5.93;;;;;;;;;;6043037;29;20139;-77
2021/04/16 14:00:42;;;;;;;9.38;5.57;;;;;;;;;;6047144;29;20136;-73
2021/04/16 14:03:44;;;;;;;7.18;5.43;;;;;;;;;;6050141;29;20160;-73
2021/04/16 14:06:46;;;;;;;6.73;5.10;;;;;;;;;;6039029;29;20106;-74
2021/04/16 14:09:47;;;;;;;7.07;5.40;;;;;;;;;;6062374;29;20080;-76
2021/04/16 14:12:49;;;;;;;8.18;5.80;;;;;;;;;;6044502;29;20113;-73
2021/04/16 14:15:50;;;;;;;5.70;4.65;;;;;;;;;;6040451;29;20099;-72
2021/04/16 14:18:52;;;;;;;6.68;4.63;;;;;;;;;;6033758;29;20170;-73
2021/04/16 14:21:56;;;;;;;9.15;6.13;;;;;;;;;;6039004;29;20064;-73
2021/04/16 14:24:57;;;;;;;6.78;5.15;;;;;;;;;;6037547;29;20521;-75
2021/04/16 14:27:58;;;;;;;8.70;5.80;;;;;;;;;;6032630;29;20473;-71
2021/04/16 14:30:59;;;;;;;7.07;6.00;;;;;;;;;;6040207;29;20140;-73
2021/04/16 14:34:00;;;;;;;9.07;5.95;;;;;;;;;;6039897;29;20073;-74
2021/04/16 14:37:02;;;;;;;8.57;5.82;;;;;;;;;;6034682;29;20139;-75
2021/04/16 14:40:05;;;;;;;7.50;5.88;;;;;;;;;;6038296;29;20149;-76
2021/04/16 14:43:06;;;;;;;11.13;6.45;;;;;;;;;;6039080;29;20060;-75
2021/04/16 14:46:07;;;;;;;9.90;6.28;;;;;;;;;;6039955;29;20149;-74
2021/04/16 14:49:08;;;;;;;7.47;6.35;;;;;;;;;;6039649;29;20072;-71
2021/04/16 14:52:13;;;;;;;9.48;6.32;;;;;;;;;;6038965;29;20477;-72
2021/04/16 14:55:18;;;;;;;8.68;6.30;;;;;;;;;;6047182;29;20053;-70
2021/04/16 14:58:25;;;;;;;10.85;6.97;;;;;;;;;;6045344;29;20133;-75
2021/04/16 15:01:26;;;;;;;10.55;6.60;;;;;;;;;;6044451;29;20509;-71
2021/04/16 15:04:28;;;;;;;9.55;6.22;;;;;;;;;;6042288;29;20085;-73
2021/04/16 15:07:31;;;;;;;10.68;7.20;;;;;;;;;;6048417;29;20084;-72
2021/04/16 15:10:33;;;;;;;;;;;;;;;;;;6047921;29;20132;-73
2021/04/16 15:13:36;;;;;;;8.70;6.93;;;;;;;;;;6044294;29;20022;-72
2021/04/16 15:16:41;;;;;;;9.65;7.35;;;;;;;;;;6044658;29;20148;-74
2021/04/16 15:19:44;;;;;;;7.72;6.40;;;;;;;;;;6043134;29;20053;-73
2021/04/16 15:22:46;;;;;;;10.75;6.72;;;;;;;;;;6047812;29;20195;-73
2021/04/16 15:25:48;;;;;;;7.82;6.78;;;;;;;;;;6036447;29;20076;-73
2021/04/16 15:28:54;;;;;;;10.13;8.10;;;;;;;;;;6037313;29;20140;-73
2021/04/16 15:31:55;;;;;;;8.98;7.75;;;;;;;;;;6043967;29;20429;-74
2021/04/16 15:47:59;;;;;;;9.25;7.78;;;;;;;;;;6044403;29;20057;-73
2021/04/16 15:51:06;;;;;;;10.17;6.93;;;;;;;;;;6042196;29;20492;-73
2021/04/16 15:54:08;;;;;;;8.38;7.18;;;;;;;;;;6036655;29;20634;-73
2021/04/16 15:57:10;;;;;;;8.82;7.68;;;;;;;;;;6042031;29;20081;-73
2021/04/16 16:00:14;;;;;;;8.90;6.90;;;;;;;;;;6044470;29;20121;-73
2021/04/16 16:03:15;;;;;;;10.38;7.18;;;;;;;;;;6041402;29;20088;-72
2021/04/16 16:06:16;;;;;;;9.68;7.55;;;;;;;;;;6049397;29;20056;-73
2021/04/16 16:09:18;;;;;;;9.85;6.70;;;;;;;;;;6039218;29;20053;-72
2021/04/16 16:12:20;;;;;;;8.70;6.80;;;;;;;;;;6043484;29;20068;-72
2021/04/16 16:15:26;;;;;;;8.30;6.80;;;;;;;;;;6040415;29;20084;-73
2021/04/16 16:18:30;;;;;;;8.75;7.20;;;;;;;;;;6045263;29;20089;-73
2021/04/16 16:21:31;;;;;;;10.32;7.35;;;;;;;;;;6043762;29;20091;-73
2021/04/16 16:24:34;;;;;;;10.50;6.88;;;;;;;;;;6043069;29;20081;-72
2021/04/16 16:27:35;;;;;;;9.75;6.93;;;;;;;;;;6041698;29;20084;-72
2021/04/16 16:30:36;;;;;;;12.02;8.05;;;;;;;;;;6046092;29;20053;-72
2021/04/16 16:33:37;;;;;;;9.13;6.82;;;;;;;;;;6045215;29;20416;-72
2021/04/16 16:36:39;;;;;;;9.85;8.70;;;;;;;;;;6045744;29;20091;-72
2021/04/16 16:39:41;;;;;;;10.55;7.75;;;;;;;;;;6043472;29;20096;-73
2021/04/16 16:42:45;;;;;;;9.77;8.35;;;;;;;;;;6045142;29;20135;-72
2021/04/16 16:45:47;;;;;;;10.90;8.85;;;;;;;;;;6045895;29;20041;-72
2021/04/16 16:48:49;;;;;;;12.80;8.98;;;;;;;;;;6036822;29;20131;-73
2021/04/16 16:51:51;;;;;;;11.77;9.23;;;;;;;;;;6047295;29;20045;-73
2021/04/16 16:54:53;;;;;;;12.25;8.95;;;;;;;;;;6038564;29;20134;-72
2021/04/16 16:57:54;;;;;;;13.20;8.40;;;;;;;;;;6043202;29;20151;-72
2021/04/16 17:00:57;;;;;;;12.55;9.32;;;;;;;;;;6045632;29;20057;-72
2021/04/16 17:03:59;;;;;;;13.73;8.57;;;;;;;;;;6034107;29;20454;-72
2021/04/16 17:07:00;;;;;;;11.98;9.07;;;;;;;;;;6045829;29;20483;-72
2021/04/16 17:10:04;;;;;;;12.80;9.52;;;;;;;;;;6044467;29;20077;-72
2021/04/16 17:13:06;;;;;;;12.32;9.70;;;;;;;;;;6038886;29;20117;-73
2021/04/16 17:16:09;;;;;;;12.80;9.82;;;;;;;;;;6041556;29;20132;-73
2021/04/16 17:19:11;;;;;;;12.55;8.52;;;;;;;;;;6034429;29;20114;-72
2021/04/16 17:22:12;;;;;;;13.23;9.15;;;;;;;;;;6036584;29;20176;-72
2021/04/16 17:25:16;;;;;;;14.40;9.68;;;;;;;;;;6035655;29;20077;-72
2021/04/16 17:28:22;;;;;;;12.32;8.80;;;;;;;;;;6039757;29;20143;-72
2021/04/16 17:31:23;;;;;;;12.57;9.20;;;;;;;;;;6040180;29;20132;-72
2021/04/16 17:34:24;;;;;;;15.45;9.73;;;;;;;;;;6035005;29;20186;-72
2021/04/16 17:37:25;;;;;;;14.52;8.60;;;;;;;;;;6038515;29;20079;-74
2021/04/16 17:40:28;;;;;;;10.85;8.13;;;;;;;;;;6044894;29;20136;-73
2021/04/16 17:43:36;;;;;;;11.18;8.57;;;;;;;;;;6049136;29;20144;-75
2021/04/16 17:46:37;;;;;;;10.35;7.85;;;;;;;;;;6048972;29;20091;-74
2021/04/16 17:49:38;;;;;;;12.55;8.73;;;;;;;;;;6044812;29;20500;-76
2021/04/16 17:52:40;;;;;;;13.30;8.75;;;;;;;;;;6035165;29;20504;-74
2021/04/16 17:55:42;;;;;;;20.38;10.18;;;;;;;;;;6034026;29;20530;-74
2021/04/16 17:58:43;;;;;;;11.15;8.73;;;;;;;;;;6033465;29;20144;-74
2021/04/16 18:01:45;;;;;;;11.52;8.55;;;;;;;;;;6036307;29;20392;-74
2021/04/16 18:04:46;;;;;;;13.57;9.10;;;;;;;;;;6034075;29;20073;-73
2021/04/16 18:07:50;;;;;;;11.55;8.57;;;;;;;;;;6039831;29;20061;-73
2021/04/16 18:10:52;;;;;;;12.07;8.20;;;;;;;;;;6037629;29;20136;-73
2021/04/16 18:13:54;;;;;;;11.20;8.68;;;;;;;;;;6038628;29;20084;-74
2021/04/16 18:16:55;;;;;;;10.80;8.48;;;;;;;;;;6038187;29;20073;-72
2021/04/16 18:19:56;;;;;;;13.57;9.32;;;;;;;;;;6038516;29;20081;-73
2021/04/16 18:23:00;;;;;;;12.98;8.90;;;;;;;;;;6046205;29;20128;-74
2021/04/16 18:26:04;;;;;;;14.27;8.57;;;;;;;;;;6046292;29;20421;-72
2021/04/16 18:29:07;;;;;;;12.93;9.23;;;;;;;;;;6046619;29;20049;-73
2021/04/16 18:32:10;;;;;;;12.50;8.75;;;;;;;;;;6056922;29;20508;-74
2021/04/16 18:35:11;;;;;;;14.52;8.98;;;;;;;;;;6059265;29;20073;-72
2021/04/16 18:38:19;;;;;;;14.25;8.80;;;;;;;;;;6065211;29;20057;-74
2021/04/16 18:41:23;;;;;;;13.73;8.48;;;;;;;;;;6071141;29;20073;-71
2021/04/16 18:44:26;;;;;;;12.30;9.30;;;;;;;;;;6068739;29;20052;-72
2021/04/16 18:47:28;;;;;;;14.40;9.55;;;;;;;;;;6059235;29;20116;-72
2021/04/16 18:50:29;;;;;;;10.63;8.02;;;;;;;;;;6054240;29;20290;-73
2021/04/16 18:53:35;;;;;;;15.48;9.48;;;;;;;;;;6051485;29;20446;-72
2021/04/16 18:56:38;;;;;;;11.90;9.15;;;;;;;;;;6052754;29;20092;-73
2021/04/16 18:59:39;;;;;;;13.75;9.10;;;;;;;;;;6051219;29;20496;-72
2021/04/16 19:02:40;;;;;;;15.30;9.35;;;;;;;;;;6038839;29;20064;-72
2021/04/16 19:05:42;;;;;;;10.90;8.25;;;;;;;;;;6054025;29;20057;-73
2021/04/16 19:08:43;;;;;;;18.20;9.60;;;;;;;;;;6047640;29;20536;-73
2021/04/16 19:11:46;;;;;;;23.05;12.13;;;;;;;;;;6054326;29;20045;-74
2021/04/16 19:14:47;;;;;;;16.08;9.10;;;;;;;;;;6055288;29;20080;-73
2021/04/16 19:17:48;;;;;;;14.85;10.73;;;;;;;;;;6056216;29;20056;-73
2021/04/16 19:20:53;;;;;;;14.85;9.05;;;;;;;;;;6056244;29;20048;-71
2021/04/16 19:23:59;;;;;;;14.48;9.35;;;;;;;;;;6058176;29;20508;-72
2021/04/16 19:27:04;;;;;;;10.95;8.70;;;;;;;;;;6055605;29;20408;-72
2021/04/16 19:30:09;;;;;;;13.50;10.25;;;;;;;;;;6050061;29;20069;-71
2021/04/16 19:33:13;;;;;;;13.90;9.20;;;;;;;;;;6050186;29;20096;-72
2021/04/16 19:36:16;;;;;;;14.82;10.05;;;;;;;;;;6054037;29;20523;-73
2021/04/16 19:39:20;;;;;;;12.80;9.70;;;;;;;;;;6050484;29;20401;-72
2021/04/16 19:42:23;;;;;;;14.05;9.68;;;;;;;;;;6051698;29;20801;-72
2021/04/16 19:45:25;;;;;;;15.27;9.70;;;;;;;;;;6047468;29;20629;-72
2021/04/16 19:49:21;;;;;;;13.35;9.13;;;;;;;;;;6049006;29;20076;-72
2021/04/16 20:18:57;;;;;;;22.35;11.48;;;;;;;;;;6045872;29;20056;-72
2021/04/16 20:21:59;;;;;;;21.65;11.10;;;;;;;;;;6053464;29;20049;-73
2021/04/16 20:25:00;;;;;;;22.95;11.60;;;;;;;;;;6055816;29;20057;-72
2021/04/16 20:28:01;;;;;;;16.67;11.82;;;;;;;;;;6054057;29;20085;-72
2021/04/16 20:31:04;;;;;;;15.57;10.50;;;;;;;;;;6050452;29;20041;-72
2021/04/16 20:34:05;;;;;;;15.38;10.45;;;;;;;;;;6053093;29;20049;-73
2021/04/16 20:37:07;;;;;;;14.18;10.88;;;;;;;;;;6051242;29;25387;-73
2021/04/16 20:40:12;;;;;;;24.13;11.23;;;;;;;;;;6049773;29;20056;-72
2021/04/16 20:43:17;;;;;;;22.00;12.00;;;;;;;;;;6054114;29;20053;-72
2021/04/16 20:46:22;;;;;;;24.67;11.25;;;;;;;;;;6057871;29;20794;-72
2021/04/16 20:49:26;;;;;;;15.32;11.10;;;;;;;;;;6064779;29;20602;-72
2021/04/16 20:52:32;;;;;;;17.40;11.23;;;;;;;;;;6054307;29;20061;-73
2021/04/16 20:55:36;;;;;;;18.27;10.77;;;;;;;;;;6057830;29;20082;-73
2021/04/16 20:58:38;;;;;;;16.65;11.23;;;;;;;;;;6053912;29;20080;-73
2021/04/16 21:01:41;;;;;;;31.30;14.50;;;;;;;;;;6050862;29;20061;-72